الصفحة الرئيسية
METAR-TAF:

METAR-TAF

مطار :

Phitsanulok, تايلاند

دائرة عرض: 16-46-23N, خط طول: 100-16-56E, ارتفاع: 47 متر

مراقبة الطقس الحالي

تاريخ ووقت الإصدار 5ساعات و 35 دقيقة قبل الساعة 13:00UTC
ريح 1 عقدة من الشمال
درجة الحرارة 28°درجة مئوية
الرطوبة 100%
ضغط 1010 hPa
الرؤية 10 كم أو أكثر
الغيوم لا تقل 1500 م ولا وجود لمزنة ركامية السحاب الأسود

METAR: VTPP 211300Z 36001KT CAVOK 28/28 Q1010 NOSIG

زمن: 01:35 (18:35 UTC)

توقعات

تاريخ ووقت الإصدار 1ساعة و 35 دقيقة قبل الساعة 17:00UTC
التوقعات صالحة من21 الساعة 18 UTC إلى 22 الساعة 18 UTC
ريح 5 عقدة من الجنوب
الرؤية 10 كم أو أكثر
غيوم متفرقة على ارتفاع 3500 قدم
مؤقت
من 22 الساعة 07 UTC إلى 22 الساعة 12 UTC
ريح 15 عقدة من الجنوب تتزايد حتى 25 عقدة
الرؤية: 4000 متر
غيوم قليلة على ارتفاع 2000 قدم, مزنة ركامية.
غيوم مفككة على ارتفاع 3000 قدم
عاصفة رعدية, مطر

TAF: VTPP 211700Z 2118/2218 18005KT 9999 SCT035 TEMPO 2207/2212 18015G25KT 4000 TSRA FEW020CB BKN030

أرصاد الطقس والتوقعات من أكثر من 4000 مطار (تقارير الطقس للمطار METAR والتنبؤ بالطقس بالمطارTAF).

المحطات المتاحة هي النقط الصفراء والحمراء على الخريطة.

حرك المؤشر فوق النقطة لمعرفة اسم المحطة.

ثم انقر لمعرفة أرصاد وتوقعات الطقس.

لتغيير الخارطة: اضغط على الأزرار الخضراء مع رمز الصليب الأسود للتكبير. على الزر الأخضر مع شرطة للتصغير، أو على الأسهم الخضراء للخرائط المجاورة.


METAR-TAF: